sensor_id;sensor_type;location;lat;lon;timestamp;pressure;altitude;pressure_sealevel;temperature;humidity
79463;BME280;68931;47.286;18.756;2023-04-24T00:00:07;99948.13;;;10.30;72.84
79463;BME280;68931;47.286;18.756;2023-04-24T00:00:42;99949.72;;;10.33;73.29
79463;BME280;68931;47.286;18.756;2023-04-24T00:01:15;99942.03;;;10.30;73.29
79463;BME280;68931;47.286;18.756;2023-04-24T00:01:47;99927.03;;;10.19;73.13
79463;BME280;68931;47.286;18.756;2023-04-24T00:02:18;99955.63;;;10.36;72.76
79463;BME280;68931;47.286;18.756;2023-04-24T00:02:49;99942.78;;;10.32;72.92
79463;BME280;68931;47.286;18.756;2023-04-24T00:03:20;99948.78;;;10.34;72.82
79463;BME280;68931;47.286;18.756;2023-04-24T00:03:58;99938.38;;;10.32;72.95
79463;BME280;68931;47.286;18.756;2023-04-24T00:04:29;99946.06;;;10.35;74.54
79463;BME280;68931;47.286;18.756;2023-04-24T00:05:02;99935.88;;;10.31;74.12
79463;BME280;68931;47.286;18.756;2023-04-24T00:05:32;99940.59;;;10.38;73.25
79463;BME280;68931;47.286;18.756;2023-04-24T00:06:05;99935.91;;;10.43;73.70
79463;BME280;68931;47.286;18.756;2023-04-24T00:06:43;99936.84;;;10.42;74.19
79463;BME280;68931;47.286;18.756;2023-04-24T00:07:14;99928.13;;;10.42;74.13
79463;BME280;68931;47.286;18.756;2023-04-24T00:07:47;99934.22;;;10.42;74.64
79463;BME280;68931;47.286;18.756;2023-04-24T00:08:18;99928.03;;;10.43;74.72
79463;BME280;68931;47.286;18.756;2023-04-24T00:08:48;99922.81;;;10.43;73.68
79463;BME280;68931;47.286;18.756;2023-04-24T00:09:19;99921.88;;;10.44;74.20
79463;BME280;68931;47.286;18.756;2023-04-24T00:09:50;99908.66;;;10.46;73.53
79463;BME280;68931;47.286;18.756;2023-04-24T00:10:21;99911.78;;;10.51;73.39
79463;BME280;68931;47.286;18.756;2023-04-24T00:10:51;99910.25;;;10.61;71.86
79463;BME280;68931;47.286;18.756;2023-04-24T00:11:23;99896.72;;;10.67;71.97
79463;BME280;68931;47.286;18.756;2023-04-24T00:11:53;99923.16;;;10.77;72.36
79463;BME280;68931;47.286;18.756;2023-04-24T00:12:25;99913.50;;;10.77;72.86
79463;BME280;68931;47.286;18.756;2023-04-24T00:12:56;99912.78;;;10.75;72.52
79463;BME280;68931;47.286;18.756;2023-04-24T00:13:27;99910.69;;;10.80;72.94
79463;BME280;68931;47.286;18.756;2023-04-24T00:14:01;99904.91;;;10.88;72.51
79463;BME280;68931;47.286;18.756;2023-04-24T00:14:32;99905.75;;;11.01;71.21
79463;BME280;68931;47.286;18.756;2023-04-24T00:15:04;99903.44;;;11.09;71.14
79463;BME280;68931;47.286;18.756;2023-04-24T00:15:35;99897.78;;;11.15;70.29
79463;BME280;68931;47.286;18.756;2023-04-24T00:16:06;99894.41;;;11.13;70.86
79463;BME280;68931;47.286;18.756;2023-04-24T00:16:36;99899.44;;;11.29;70.35
79463;BME280;68931;47.286;18.756;2023-04-24T00:17:07;99897.75;;;11.28;71.29
79463;BME280;68931;47.286;18.756;2023-04-24T00:17:38;99887.44;;;11.38;69.53
79463;BME280;68931;47.286;18.756;2023-04-24T00:18:08;99897.81;;;11.52;70.20
79463;BME280;68931;47.286;18.756;2023-04-24T00:18:39;99896.00;;;11.65;67.67
79463;BME280;68931;47.286;18.756;2023-04-24T00:19:10;99896.84;;;11.78;68.43
79463;BME280;68931;47.286;18.756;2023-04-24T00:19:41;99888.22;;;11.76;67.96
79463;BME280;68931;47.286;18.756;2023-04-24T00:20:12;99899.31;;;11.80;68.70
79463;BME280;68931;47.286;18.756;2023-04-24T00:20:43;99888.22;;;11.76;69.06
79463;BME280;68931;47.286;18.756;2023-04-24T00:21:15;99901.97;;;11.80;69.54
79463;BME280;68931;47.286;18.756;2023-04-24T00:21:48;99887.38;;;11.76;68.03
79463;BME280;68931;47.286;18.756;2023-04-24T00:22:21;99877.81;;;11.75;69.54
79463;BME280;68931;47.286;18.756;2023-04-24T00:22:55;99888.59;;;11.83;68.72
79463;BME280;68931;47.286;18.756;2023-04-24T00:23:26;99863.06;;;11.72;68.31
79463;BME280;68931;47.286;18.756;2023-04-24T00:23:57;99890.56;;;11.92;68.48
79463;BME280;68931;47.286;18.756;2023-04-24T00:24:31;99881.72;;;11.93;67.70
79463;BME280;68931;47.286;18.756;2023-04-24T00:25:01;99895.16;;;12.01;68.58
79463;BME280;68931;47.286;18.756;2023-04-24T00:25:32;99879.66;;;11.85;68.64
79463;BME280;68931;47.286;18.756;2023-04-24T00:26:14;99913.66;;;11.99;69.58
79463;BME280;68931;47.286;18.756;2023-04-24T00:26:44;99909.88;;;12.03;68.09
79463;BME280;68931;47.286;18.756;2023-04-24T00:27:15;99913.22;;;12.05;68.71
79463;BME280;68931;47.286;18.756;2023-04-24T00:27:46;99911.31;;;12.07;68.13
79463;BME280;68931;47.286;18.756;2023-04-24T00:28:17;99920.66;;;12.12;67.90
79463;BME280;68931;47.286;18.756;2023-04-24T00:28:47;99917.78;;;12.15;67.78
79463;BME280;68931;47.286;18.756;2023-04-24T00:29:18;99904.91;;;12.12;68.06
79463;BME280;68931;47.286;18.756;2023-04-24T00:29:49;99904.91;;;12.12;68.07
79463;BME280;68931;47.286;18.756;2023-04-24T00:30:19;99913.38;;;12.15;68.00
79463;BME280;68931;47.286;18.756;2023-04-24T00:30:50;99912.69;;;12.13;68.34
79463;BME280;68931;47.286;18.756;2023-04-24T00:31:21;99905.72;;;12.12;69.22
79463;BME280;68931;47.286;18.756;2023-04-24T00:31:52;99914.47;;;12.13;68.97
79463;BME280;68931;47.286;18.756;2023-04-24T00:32:22;99916.25;;;12.12;68.80
79463;BME280;68931;47.286;18.756;2023-04-24T00:32:53;99916.34;;;12.11;69.76
79463;BME280;68931;47.286;18.756;2023-04-24T00:33:24;99907.75;;;12.09;69.68
79463;BME280;68931;47.286;18.756;2023-04-24T00:33:54;99914.31;;;12.14;68.88
79463;BME280;68931;47.286;18.756;2023-04-24T00:34:25;99918.53;;;12.17;68.51
79463;BME280;68931;47.286;18.756;2023-04-24T00:34:56;99895.25;;;11.99;69.04
79463;BME280;68931;47.286;18.756;2023-04-24T00:35:27;99898.50;;;12.03;68.66
79463;BME280;68931;47.286;18.756;2023-04-24T00:35:57;99908.47;;;12.11;69.27
79463;BME280;68931;47.286;18.756;2023-04-24T00:36:28;99904.47;;;12.05;70.54
79463;BME280;68931;47.286;18.756;2023-04-24T00:36:59;99902.00;;;12.03;70.01
79463;BME280;68931;47.286;18.756;2023-04-24T00:37:33;99906.75;;;12.22;68.73
79463;BME280;68931;47.286;18.756;2023-04-24T00:38:03;99905.91;;;12.22;69.31
79463;BME280;68931;47.286;18.756;2023-04-24T00:38:34;99911.38;;;12.19;69.43
79463;BME280;68931;47.286;18.756;2023-04-24T00:39:05;99898.34;;;12.17;68.76
79463;BME280;68931;47.286;18.756;2023-04-24T00:39:41;99897.75;;;12.14;69.83
79463;BME280;68931;47.286;18.756;2023-04-24T00:40:12;99899.81;;;12.21;68.88
79463;BME280;68931;47.286;18.756;2023-04-24T00:40:43;99896.66;;;12.16;70.08
79463;BME280;68931;47.286;18.756;2023-04-24T00:41:13;99891.13;;;12.08;71.78
79463;BME280;68931;47.286;18.756;2023-04-24T00:41:48;99893.53;;;12.11;71.17
79463;BME280;68931;47.286;18.756;2023-04-24T00:42:19;99896.44;;;12.19;71.49
79463;BME280;68931;47.286;18.756;2023-04-24T00:42:49;99885.53;;;12.13;70.50
79463;BME280;68931;47.286;18.756;2023-04-24T00:43:20;99900.84;;;12.19;71.77
79463;BME280;68931;47.286;18.756;2023-04-24T00:43:52;99890.56;;;12.16;71.77
79463;BME280;68931;47.286;18.756;2023-04-24T00:44:23;99901.59;;;12.21;72.51
79463;BME280;68931;47.286;18.756;2023-04-24T00:44:54;99893.44;;;12.24;72.71
79463;BME280;68931;47.286;18.756;2023-04-24T00:45:28;99906.00;;;12.20;73.48
79463;BME280;68931;47.286;18.756;2023-04-24T00:45:58;99905.91;;;12.22;73.10
79463;BME280;68931;47.286;18.756;2023-04-24T00:46:31;99911.88;;;12.24;74.59
79463;BME280;68931;47.286;18.756;2023-04-24T00:47:02;99881.13;;;12.13;73.94
79463;BME280;68931;47.286;18.756;2023-04-24T00:47:33;99899.97;;;12.31;74.27
79463;BME280;68931;47.286;18.756;2023-04-24T00:48:05;99889.66;;;12.28;74.65
79463;BME280;68931;47.286;18.756;2023-04-24T00:48:35;99905.09;;;12.32;75.27
79463;BME280;68931;47.286;18.756;2023-04-24T00:49:10;99898.44;;;12.39;74.23
79463;BME280;68931;47.286;18.756;2023-04-24T00:49:42;99882.97;;;12.35;73.89
79463;BME280;68931;47.286;18.756;2023-04-24T00:50:15;99900.25;;;12.50;72.63
79463;BME280;68931;47.286;18.756;2023-04-24T00:50:45;99896.78;;;12.50;73.88
79463;BME280;68931;47.286;18.756;2023-04-24T00:51:16;99889.13;;;12.47;74.61
79463;BME280;68931;47.286;18.756;2023-04-24T00:51:48;99856.63;;;12.24;75.05
79463;BME280;68931;47.286;18.756;2023-04-24T00:52:22;99882.88;;;12.36;76.30
79463;BME280;68931;47.286;18.756;2023-04-24T00:52:57;99886.66;;;12.32;76.78
79463;BME280;68931;47.286;18.756;2023-04-24T00:53:28;99887.34;;;12.23;77.83
79463;BME280;68931;47.286;18.756;2023-04-24T00:53:59;99885.91;;;12.19;77.78
79463;BME280;68931;47.286;18.756;2023-04-24T00:54:30;99867.66;;;12.05;78.38
79463;BME280;68931;47.286;18.756;2023-04-24T00:55:02;99880.28;;;12.13;78.45
79463;BME280;68931;47.286;18.756;2023-04-24T00:55:33;99880.81;;;12.05;79.17
79463;BME280;68931;47.286;18.756;2023-04-24T00:56:04;99881.56;;;12.07;79.07
79463;BME280;68931;47.286;18.756;2023-04-24T00:56:35;99867.06;;;12.01;79.59
79463;BME280;68931;47.286;18.756;2023-04-24T00:57:06;99865.28;;;12.02;79.28
79463;BME280;68931;47.286;18.756;2023-04-24T00:57:40;99875.91;;;12.00;79.23
79463;BME280;68931;47.286;18.756;2023-04-24T00:58:12;99863.72;;;11.99;79.41
79463;BME280;68931;47.286;18.756;2023-04-24T00:58:43;99862.88;;;11.99;79.52
79463;BME280;68931;47.286;18.756;2023-04-24T00:59:16;99850.50;;;11.88;79.72
79463;BME280;68931;47.286;18.756;2023-04-24T00:59:47;99867.53;;;11.95;79.05
79463;BME280;68931;47.286;18.756;2023-04-24T01:00:18;99853.88;;;11.90;79.20
79463;BME280;68931;47.286;18.756;2023-04-24T01:00:51;99845.88;;;11.92;79.25
79463;BME280;68931;47.286;18.756;2023-04-24T01:01:23;99862.38;;;11.94;80.58
79463;BME280;68931;47.286;18.756;2023-04-24T01:01:55;99851.97;;;11.92;79.38
79463;BME280;68931;47.286;18.756;2023-04-24T01:02:29;99850.50;;;11.88;79.97
79463;BME280;68931;47.286;18.756;2023-04-24T01:03:04;99856.59;;;11.89;79.84
79463;BME280;68931;47.286;18.756;2023-04-24T01:03:36;99865.84;;;11.94;80.77
79463;BME280;68931;47.286;18.756;2023-04-24T01:04:08;99842.59;;;11.77;80.29
79463;BME280;68931;47.286;18.756;2023-04-24T01:04:40;99871.44;;;11.90;81.13
79463;BME280;68931;47.286;18.756;2023-04-24T01:05:12;99870.47;;;11.91;81.40
79463;BME280;68931;47.286;18.756;2023-04-24T01:05:46;99868.81;;;11.90;81.40
79463;BME280;68931;47.286;18.756;2023-04-24T01:06:18;99866.91;;;11.92;81.90
79463;BME280;68931;47.286;18.756;2023-04-24T01:06:50;99861.03;;;11.88;80.12
79463;BME280;68931;47.286;18.756;2023-04-24T01:07:21;99864.28;;;11.92;80.44
79463;BME280;68931;47.286;18.756;2023-04-24T01:07:52;99845.59;;;11.84;80.61
79463;BME280;68931;47.286;18.756;2023-04-24T01:08:24;99856.50;;;11.90;80.87
79463;BME280;68931;47.286;18.756;2023-04-24T01:08:58;99864.38;;;11.90;80.92
79463;BME280;68931;47.286;18.756;2023-04-24T01:09:31;99864.75;;;11.86;81.61
79463;BME280;68931;47.286;18.756;2023-04-24T01:10:02;99842.34;;;11.80;81.21
79463;BME280;68931;47.286;18.756;2023-04-24T01:10:35;99844.03;;;11.81;80.93
79463;BME280;68931;47.286;18.756;2023-04-24T01:11:07;99849.41;;;11.80;81.35
79463;BME280;68931;47.286;18.756;2023-04-24T01:11:38;99853.28;;;11.87;80.85
79463;BME280;68931;47.286;18.756;2023-04-24T01:12:09;99834.34;;;11.82;80.90
79463;BME280;68931;47.286;18.756;2023-04-24T01:12:39;99847.19;;;11.86;80.54
79463;BME280;68931;47.286;18.756;2023-04-24T01:13:10;99831.28;;;11.88;80.06
79463;BME280;68931;47.286;18.756;2023-04-24T01:13:41;99825.19;;;11.87;79.30
79463;BME280;68931;47.286;18.756;2023-04-24T01:14:15;99819.94;;;11.87;78.00
79463;BME280;68931;47.286;18.756;2023-04-24T01:14:45;99828.09;;;11.95;79.47
79463;BME280;68931;47.286;18.756;2023-04-24T01:15:16;99814.69;;;11.87;79.32
79463;BME280;68931;47.286;18.756;2023-04-24T01:15:48;99832.53;;;11.95;80.14
79463;BME280;68931;47.286;18.756;2023-04-24T01:16:19;99808.69;;;11.85;78.79
79463;BME280;68931;47.286;18.756;2023-04-24T01:16:52;99829.66;;;11.98;78.11
79463;BME280;68931;47.286;18.756;2023-04-24T01:17:23;99825.59;;;11.94;78.70
79463;BME280;68931;47.286;18.756;2023-04-24T01:17:54;99824.50;;;11.96;77.87
79463;BME280;68931;47.286;18.756;2023-04-24T01:18:24;99821.06;;;11.96;78.92
79463;BME280;68931;47.286;18.756;2023-04-24T01:18:55;99831.31;;;11.99;78.60
79463;BME280;68931;47.286;18.756;2023-04-24T01:19:26;99827.25;;;11.95;79.15
79463;BME280;68931;47.286;18.756;2023-04-24T01:19:57;99827.75;;;12.00;78.50
79463;BME280;68931;47.286;18.756;2023-04-24T01:20:28;99829.44;;;12.01;78.43
79463;BME280;68931;47.286;18.756;2023-04-24T01:21:03;99831.56;;;11.96;78.97
79463;BME280;68931;47.286;18.756;2023-04-24T01:21:37;99822.59;;;11.98;77.30
79463;BME280;68931;47.286;18.756;2023-04-24T01:22:12;99830.47;;;11.98;77.76
79463;BME280;68931;47.286;18.756;2023-04-24T01:22:43;99829.44;;;12.01;76.86
79463;BME280;68931;47.286;18.756;2023-04-24T01:23:14;99798.19;;;11.85;77.49
79463;BME280;68931;47.286;18.756;2023-04-24T01:23:45;99797.47;;;11.83;76.46
79463;BME280;68931;47.286;18.756;2023-04-24T01:24:16;99828.69;;;11.99;77.05
79463;BME280;68931;47.286;18.756;2023-04-24T01:24:49;99829.53;;;11.99;77.03
79463;BME280;68931;47.286;18.756;2023-04-24T01:25:20;99826.31;;;11.96;77.41
79463;BME280;68931;47.286;18.756;2023-04-24T01:25:50;99827.84;;;11.98;77.40
79463;BME280;68931;47.286;18.756;2023-04-24T01:26:22;99823.78;;;11.94;76.47
79463;BME280;68931;47.286;18.756;2023-04-24T01:26:53;99814.34;;;11.92;76.81
79463;BME280;68931;47.286;18.756;2023-04-24T01:27:27;99833.97;;;11.99;75.78
79463;BME280;68931;47.286;18.756;2023-04-24T01:27:58;99810.25;;;11.88;76.54
79463;BME280;68931;47.286;18.756;2023-04-24T01:28:32;99831.44;;;11.97;77.32
79463;BME280;68931;47.286;18.756;2023-04-24T01:29:03;99814.44;;;11.90;77.09
79463;BME280;68931;47.286;18.756;2023-04-24T01:29:35;99828.44;;;11.91;76.56
79463;BME280;68931;47.286;18.756;2023-04-24T01:30:07;99819.81;;;11.89;77.32
79463;BME280;68931;47.286;18.756;2023-04-24T01:30:38;99829.16;;;11.93;77.14
79463;BME280;68931;47.286;18.756;2023-04-24T01:31:09;99834.41;;;11.93;77.41
79463;BME280;68931;47.286;18.756;2023-04-24T01:31:40;99823.28;;;11.89;77.63
79463;BME280;68931;47.286;18.756;2023-04-24T01:32:10;99830.94;;;11.92;76.68
79463;BME280;68931;47.286;18.756;2023-04-24T01:32:42;99827.59;;;11.90;77.01
79463;BME280;68931;47.286;18.756;2023-04-24T01:33:17;99826.53;;;11.93;76.76
79463;BME280;68931;47.286;18.756;2023-04-24T01:33:48;99829.25;;;11.91;77.07
79463;BME280;68931;47.286;18.756;2023-04-24T01:34:19;99829.47;;;11.88;77.44
79463;BME280;68931;47.286;18.756;2023-04-24T01:34:50;99818.13;;;11.88;75.80
79463;BME280;68931;47.286;18.756;2023-04-24T01:35:22;99822.56;;;11.87;76.00
79463;BME280;68931;47.286;18.756;2023-04-24T01:35:54;99823.28;;;11.89;75.69
79463;BME280;68931;47.286;18.756;2023-04-24T01:36:27;99822.56;;;11.87;75.86
79463;BME280;68931;47.286;18.756;2023-04-24T01:36:59;99826.75;;;11.90;75.96
79463;BME280;68931;47.286;18.756;2023-04-24T01:37:33;99820.91;;;11.86;76.63
79463;BME280;68931;47.286;18.756;2023-04-24T01:38:03;99822.69;;;11.86;75.37
79463;BME280;68931;47.286;18.756;2023-04-24T01:38:34;99819.22;;;11.85;76.17
79463;BME280;68931;47.286;18.756;2023-04-24T01:39:06;99817.63;;;11.83;76.41
79463;BME280;68931;47.286;18.756;2023-04-24T01:39:37;99811.06;;;11.77;75.55
79463;BME280;68931;47.286;18.756;2023-04-24T01:40:10;99812.75;;;11.78;76.29
79463;BME280;68931;47.286;18.756;2023-04-24T01:40:41;99820.47;;;11.80;76.06
79463;BME280;68931;47.286;18.756;2023-04-24T01:41:12;99790.41;;;11.60;76.01
79463;BME280;68931;47.286;18.756;2023-04-24T01:41:42;99814.63;;;11.76;75.75
79463;BME280;68931;47.286;18.756;2023-04-24T01:42:14;99817.16;;;11.78;75.69
79463;BME280;68931;47.286;18.756;2023-04-24T01:42:45;99805.34;;;11.70;75.97
79463;BME280;68931;47.286;18.756;2023-04-24T01:43:19;99811.34;;;11.73;76.52
79463;BME280;68931;47.286;18.756;2023-04-24T01:43:50;99816.72;;;11.71;76.53
79463;BME280;68931;47.286;18.756;2023-04-24T01:44:21;99813.13;;;11.72;75.53
79463;BME280;68931;47.286;18.756;2023-04-24T01:44:52;99808.72;;;11.73;76.67
79463;BME280;68931;47.286;18.756;2023-04-24T01:45:24;99806.44;;;11.68;76.09
79463;BME280;68931;47.286;18.756;2023-04-24T01:45:55;99813.25;;;11.70;76.59
79463;BME280;68931;47.286;18.756;2023-04-24T01:46:26;99797.94;;;11.64;76.17
79463;BME280;68931;47.286;18.756;2023-04-24T01:46:56;99812.28;;;11.72;75.16
79463;BME280;68931;47.286;18.756;2023-04-24T01:47:28;99802.25;;;11.65;75.51
79463;BME280;68931;47.286;18.756;2023-04-24T01:47:58;99793.63;;;11.63;75.17
79463;BME280;68931;47.286;18.756;2023-04-24T01:48:31;99806.19;;;11.71;75.72
79463;BME280;68931;47.286;18.756;2023-04-24T01:49:02;99799.50;;;11.67;75.36
79463;BME280;68931;47.286;18.756;2023-04-24T01:49:33;99778.53;;;11.54;76.25
79463;BME280;68931;47.286;18.756;2023-04-24T01:50:04;99801.28;;;11.66;76.13
79463;BME280;68931;47.286;18.756;2023-04-24T01:50:35;99805.50;;;11.69;76.28
79463;BME280;68931;47.286;18.756;2023-04-24T01:51:06;99797.19;;;11.62;76.06
79463;BME280;68931;47.286;18.756;2023-04-24T01:51:37;99806.66;;;11.65;75.50
79463;BME280;68931;47.286;18.756;2023-04-24T01:52:08;99808.34;;;11.66;76.63
79463;BME280;68931;47.286;18.756;2023-04-24T01:52:39;99784.88;;;11.52;76.42
79463;BME280;68931;47.286;18.756;2023-04-24T01:53:10;99794.47;;;11.64;76.48
79463;BME280;68931;47.286;18.756;2023-04-24T01:53:44;99801.59;;;11.62;76.25
79463;BME280;68931;47.286;18.756;2023-04-24T01:54:15;99798.97;;;11.62;76.32
79463;BME280;68931;47.286;18.756;2023-04-24T01:54:46;99793.03;;;11.60;75.29
79463;BME280;68931;47.286;18.756;2023-04-24T01:55:16;99793.97;;;11.59;74.76
79463;BME280;68931;47.286;18.756;2023-04-24T01:55:47;99798.03;;;11.63;74.35
79463;BME280;68931;47.286;18.756;2023-04-24T01:56:20;99785.75;;;11.63;74.46
79463;BME280;68931;47.286;18.756;2023-04-24T01:56:51;99795.31;;;11.64;74.77
79463;BME280;68931;47.286;18.756;2023-04-24T01:57:22;99785.84;;;11.62;74.74
79463;BME280;68931;47.286;18.756;2023-04-24T01:57:55;99786.13;;;11.70;74.39
79463;BME280;68931;47.286;18.756;2023-04-24T01:58:26;99780.16;;;11.68;74.08
79463;BME280;68931;47.286;18.756;2023-04-24T01:58:58;99795.47;;;11.74;73.98
79463;BME280;68931;47.286;18.756;2023-04-24T01:59:29;99792.66;;;11.77;73.64
79463;BME280;68931;47.286;18.756;2023-04-24T02:00:01;99793.25;;;11.81;72.87
79463;BME280;68931;47.286;18.756;2023-04-24T02:00:33;99789.09;;;11.78;74.29
79463;BME280;68931;47.286;18.756;2023-04-24T02:01:06;99789.38;;;11.74;74.32
79463;BME280;68931;47.286;18.756;2023-04-24T02:01:38;99786.56;;;11.77;73.14
79463;BME280;68931;47.286;18.756;2023-04-24T02:02:09;99783.69;;;11.80;73.69
79463;BME280;68931;47.286;18.756;2023-04-24T02:02:42;99797.25;;;11.86;72.75
79463;BME280;68931;47.286;18.756;2023-04-24T02:03:13;99775.47;;;11.84;72.50
79463;BME280;68931;47.286;18.756;2023-04-24T02:03:44;99789.09;;;11.89;73.35
79463;BME280;68931;47.286;18.756;2023-04-24T02:04:14;99776.31;;;11.85;72.26
79463;BME280;68931;47.286;18.756;2023-04-24T02:04:45;99788.41;;;11.87;73.60
79463;BME280;68931;47.286;18.756;2023-04-24T02:05:16;99786.00;;;11.84;73.25
79463;BME280;68931;47.286;18.756;2023-04-24T02:05:47;99791.63;;;11.91;74.34
79463;BME280;68931;47.286;18.756;2023-04-24T02:06:20;99777.59;;;11.79;74.92
79463;BME280;68931;47.286;18.756;2023-04-24T02:06:50;99797.94;;;11.88;75.03
79463;BME280;68931;47.286;18.756;2023-04-24T02:07:22;99802.34;;;11.88;75.35
79463;BME280;68931;47.286;18.756;2023-04-24T02:07:53;99796.28;;;11.87;74.57
79463;BME280;68931;47.286;18.756;2023-04-24T02:08:23;99794.47;;;11.88;73.45
79463;BME280;68931;47.286;18.756;2023-04-24T02:08:54;99797.94;;;11.88;73.77
79463;BME280;68931;47.286;18.756;2023-04-24T02:09:25;99803.09;;;11.90;73.11
79463;BME280;68931;47.286;18.756;2023-04-24T02:09:55;99786.09;;;11.83;73.43
79463;BME280;68931;47.286;18.756;2023-04-24T02:10:26;99793.41;;;11.90;73.87
79463;BME280;68931;47.286;18.756;2023-04-24T02:10:57;99799.63;;;11.89;74.08
79463;BME280;68931;47.286;18.756;2023-04-24T02:11:28;99798.09;;;11.87;74.76
79463;BME280;68931;47.286;18.756;2023-04-24T02:12:01;99798.78;;;11.89;74.02
79463;BME280;68931;47.286;18.756;2023-04-24T02:12:32;99786.00;;;11.84;73.49
79463;BME280;68931;47.286;18.756;2023-04-24T02:13:03;99792.09;;;11.85;73.49
79463;BME280;68931;47.286;18.756;2023-04-24T02:13:35;99807.41;;;11.91;72.94
79463;BME280;68931;47.286;18.756;2023-04-24T02:14:06;99800.56;;;11.88;73.53
79463;BME280;68931;47.286;18.756;2023-04-24T02:14:36;99790.41;;;11.84;73.59
79463;BME280;68931;47.286;18.756;2023-04-24T02:15:10;99796.50;;;11.84;73.14
79463;BME280;68931;47.286;18.756;2023-04-24T02:15:41;99799.03;;;11.86;74.15
79463;BME280;68931;47.286;18.756;2023-04-24T02:16:12;99778.13;;;11.72;73.90
79463;BME280;68931;47.286;18.756;2023-04-24T02:16:42;99797.94;;;11.88;74.03
79463;BME280;68931;47.286;18.756;2023-04-24T02:17:14;99802.59;;;11.85;73.74
79463;BME280;68931;47.286;18.756;2023-04-24T02:17:48;99790.41;;;11.84;73.53
79463;BME280;68931;47.286;18.756;2023-04-24T02:18:21;99796.50;;;11.84;73.23
79463;BME280;68931;47.286;18.756;2023-04-24T02:18:53;99805.34;;;11.83;73.64
79463;BME280;68931;47.286;18.756;2023-04-24T02:19:23;99801.13;;;11.81;74.17
79463;BME280;68931;47.286;18.756;2023-04-24T02:19:54;99792.53;;;11.79;74.56
79463;BME280;68931;47.286;18.756;2023-04-24T02:20:25;99792.94;;;11.73;74.04
79463;BME280;68931;47.286;18.756;2023-04-24T02:20:56;99797.19;;;11.75;73.97
79463;BME280;68931;47.286;18.756;2023-04-24T02:21:27;99801.38;;;11.78;75.03
79463;BME280;68931;47.286;18.756;2023-04-24T02:22:03;99801.50;;;11.76;74.36
79463;BME280;68931;47.286;18.756;2023-04-24T02:22:34;99796.25;;;11.76;74.77
79463;BME280;68931;47.286;18.756;2023-04-24T02:23:08;99801.50;;;11.76;75.22
79463;BME280;68931;47.286;18.756;2023-04-24T02:23:38;99802.44;;;11.75;75.50
79463;BME280;68931;47.286;18.756;2023-04-24T02:24:09;99793.59;;;11.76;74.91
79463;BME280;68931;47.286;18.756;2023-04-24T02:24:40;99802.22;;;11.78;74.96
79463;BME280;68931;47.286;18.756;2023-04-24T02:25:11;99804.22;;;11.75;74.69
79463;BME280;68931;47.286;18.756;2023-04-24T02:25:42;99793.06;;;11.71;75.29
79463;BME280;68931;47.286;18.756;2023-04-24T02:26:12;99795.47;;;11.74;74.92
79463;BME280;68931;47.286;18.756;2023-04-24T02:26:43;99801.38;;;11.78;74.74
79463;BME280;68931;47.286;18.756;2023-04-24T02:27:14;99804.84;;;11.78;75.37
79463;BME280;68931;47.286;18.756;2023-04-24T02:27:45;99804.00;;;11.78;75.10
79463;BME280;68931;47.286;18.756;2023-04-24T02:28:15;99807.59;;;11.77;75.42
79463;BME280;68931;47.286;18.756;2023-04-24T02:28:46;99772.97;;;11.59;76.21
79463;BME280;68931;47.286;18.756;2023-04-24T02:29:17;99794.16;;;11.68;75.77
79463;BME280;68931;47.286;18.756;2023-04-24T02:29:50;99803.47;;;11.73;74.57
79463;BME280;68931;47.286;18.756;2023-04-24T02:30:23;99798.22;;;11.73;75.22
79463;BME280;68931;47.286;18.756;2023-04-24T02:30:54;99806.63;;;11.78;74.73
79463;BME280;68931;47.286;18.756;2023-04-24T02:31:25;99815.13;;;11.81;73.79
79463;BME280;68931;47.286;18.756;2023-04-24T02:31:56;99783.97;;;11.64;74.47
79463;BME280;68931;47.286;18.756;2023-04-24T02:32:26;99808.06;;;11.82;73.85
79463;BME280;68931;47.286;18.756;2023-04-24T02:32:57;99812.50;;;11.81;75.57
79463;BME280;68931;47.286;18.756;2023-04-24T02:33:28;99809.03;;;11.81;74.94
79463;BME280;68931;47.286;18.756;2023-04-24T02:33:59;99808.19;;;11.80;74.22
79463;BME280;68931;47.286;18.756;2023-04-24T02:34:30;99801.97;;;11.81;73.71
79463;BME280;68931;47.286;18.756;2023-04-24T02:35:01;99808.28;;;11.79;74.50
79463;BME280;68931;47.286;18.756;2023-04-24T02:35:31;99799.59;;;11.78;75.02
79463;BME280;68931;47.286;18.756;2023-04-24T02:36:02;99807.22;;;11.81;74.65
79463;BME280;68931;47.286;18.756;2023-04-24T02:36:36;99779.53;;;11.64;74.46
79463;BME280;68931;47.286;18.756;2023-04-24T02:37:07;99799.47;;;11.80;74.71
79463;BME280;68931;47.286;18.756;2023-04-24T02:37:37;99792.94;;;11.73;75.08
79463;BME280;68931;47.286;18.756;2023-04-24T02:38:08;99792.84;;;11.74;74.73
79463;BME280;68931;47.286;18.756;2023-04-24T02:38:39;99800.31;;;11.80;74.10
79463;BME280;68931;47.286;18.756;2023-04-24T02:39:12;99795.03;;;11.80;75.03
79463;BME280;68931;47.286;18.756;2023-04-24T02:39:44;99798.75;;;11.78;75.31
79463;BME280;68931;47.286;18.756;2023-04-24T02:40:17;99794.44;;;11.77;75.66
79463;BME280;68931;47.286;18.756;2023-04-24T02:40:51;99797.19;;;11.75;75.02
79463;BME280;68931;47.286;18.756;2023-04-24T02:41:22;99790.44;;;11.71;75.01
79463;BME280;68931;47.286;18.756;2023-04-24T02:41:53;99782.06;;;11.66;75.43
79463;BME280;68931;47.286;18.756;2023-04-24T02:42:23;99792.22;;;11.70;75.76
79463;BME280;68931;47.286;18.756;2023-04-24T02:42:54;99774.84;;;11.57;75.58
79463;BME280;68931;47.286;18.756;2023-04-24T02:43:25;99795.31;;;11.64;75.78
79463;BME280;68931;47.286;18.756;2023-04-24T02:43:58;99787.53;;;11.63;76.67
79463;BME280;68931;47.286;18.756;2023-04-24T02:44:29;99783.34;;;11.60;76.06
79463;BME280;68931;47.286;18.756;2023-04-24T02:45:00;99782.72;;;11.57;77.12